SAV3202 LXGB-EGGD
Flight info
| Callsign | SAV3202 |
|---|---|
| Flight time | 2h 21m |
| Altitude | 32000 |
| Route | PIMOS M985 MGA DCT BLN DCT MORAL DCT BEXID DCT VTB DCT SIE DCT XERMA DCT ARLUN DCT BUGIX DCT UNGAS DCT DELOG DCT NOVAN DCT RUSIB DCT NOZHU/N0381F280 DCT SHIRI DCT TOJAQ |
| Aircraft | A20N/M-SDE2E3FGHIRWXY/LB1 |
Departure
| Time | 2026-05-06 10:27 |
|---|---|
| Airport | Gibraltar Airport (LXGB) |
Arrival
| Time | 2026-05-06 12:48 |
|---|---|
| Airport | Bristol Airport (EGGD) |
| Time | Latitude | Longitude | Altitude | Speed | Heading |
|---|---|---|---|---|---|
| 2026-05-06 10:13 | 36.15310 | -5.34578 | 17 ft | 0 kts | 357° |
| 2026-05-06 10:18 | 36.15303 | -5.34578 | 17 ft | 2 kts | 357° |
| 2026-05-06 10:18 | 36.15286 | -5.34577 | 17 ft | 2 kts | 358° |
| 2026-05-06 10:18 | 36.15270 | -5.34576 | 18 ft | 2 kts | 358° |
| 2026-05-06 10:18 | 36.15253 | -5.34576 | 17 ft | 2 kts | 5° |
| 2026-05-06 10:19 | 36.15238 | -5.34582 | 19 ft | 2 kts | 49° |
| 2026-05-06 10:19 | 36.15231 | -5.34596 | 22 ft | 1 kts | 83° |
| 2026-05-06 10:19 | 36.15231 | -5.34598 | 22 ft | 0 kts | 85° |
| 2026-05-06 10:22 | 36.15232 | -5.34579 | 19 ft | 12 kts | 86° |
| 2026-05-06 10:22 | 36.15236 | -5.34470 | 16 ft | 0 kts | 86° |
| 2026-05-06 10:22 | 36.15238 | -5.34431 | 15 ft | 9 kts | 86° |
| 2026-05-06 10:22 | 36.15239 | -5.34372 | 14 ft | 10 kts | 91° |
| 2026-05-06 10:23 | 36.15240 | -5.34276 | 15 ft | 9 kts | 89° |
| 2026-05-06 10:23 | 36.15240 | -5.34266 | 15 ft | 0 kts | 90° |
| 2026-05-06 10:23 | 36.15236 | -5.34244 | 15 ft | 0 kts | 120° |
| 2026-05-06 10:24 | 36.15226 | -5.34233 | 16 ft | 8 kts | 147° |
| 2026-05-06 10:24 | 36.15151 | -5.34182 | 18 ft | 19 kts | 105° |
| 2026-05-06 10:25 | 36.15188 | -5.34053 | 20 ft | 14 kts | 97° |
| 2026-05-06 10:25 | 36.15150 | -5.34074 | 19 ft | 10 kts | 269° |
| 2026-05-06 10:25 | 36.15150 | -5.34082 | 19 ft | 0 kts | 270° |
| 2026-05-06 10:26 | 36.15150 | -5.34100 | 18 ft | 21 kts | 271° |
| 2026-05-06 10:26 | 36.15125 | -5.34681 | 20 ft | 110 kts | 268° |
| 2026-05-06 10:26 | 36.15110 | -5.35895 | 151 ft | 161 kts | 269° |
| 2026-05-06 10:27 | 36.15073 | -5.37350 | 728 ft | 179 kts | 258° |
| 2026-05-06 10:27 | 36.14524 | -5.38810 | 1485 ft | 197 kts | 233° |
| 2026-05-06 10:27 | 36.13369 | -5.39938 | 2121 ft | 229 kts | 204° |
| 2026-05-06 10:27 | 36.11718 | -5.40343 | 2792 ft | 258 kts | 178° |
| 2026-05-06 10:28 | 36.09879 | -5.39822 | 3345 ft | 290 kts | 153° |
| 2026-05-06 10:28 | 36.08161 | -5.38366 | 3835 ft | 319 kts | 135° |
| 2026-05-06 10:28 | 36.06775 | -5.36102 | 4338 ft | 344 kts | 118° |
| 2026-05-06 10:28 | 36.05872 | -5.33267 | 4877 ft | 364 kts | 103° |
| 2026-05-06 10:29 | 36.05056 | -5.30310 | 5980 ft | 361 kts | 119° |
| 2026-05-06 10:29 | 36.03592 | -5.27864 | 6611 ft | 344 kts | 137° |
| 2026-05-06 10:29 | 36.01689 | -5.26332 | 6818 ft | 313 kts | 161° |
| 2026-05-06 10:29 | 35.99694 | -5.25615 | 7007 ft | 286 kts | 160° |
| 2026-05-06 10:30 | 35.98105 | -5.24262 | 7200 ft | 280 kts | 132° |
| 2026-05-06 10:30 | 35.97153 | -5.22142 | 7402 ft | 294 kts | 106° |
| 2026-05-06 10:30 | 35.97019 | -5.19642 | 7597 ft | 294 kts | 79° |
| 2026-05-06 10:30 | 35.97799 | -5.17327 | 8056 ft | 295 kts | 51° |
| 2026-05-06 10:31 | 35.99292 | -5.15606 | 9117 ft | 294 kts | 35° |
| 2026-05-06 10:31 | 36.00966 | -5.14115 | 10164 ft | 299 kts | 33° |
| 2026-05-06 10:31 | 36.02684 | -5.12618 | 11125 ft | 304 kts | 33° |
| 2026-05-06 10:31 | 36.04413 | -5.11068 | 12078 ft | 310 kts | 34° |
| 2026-05-06 10:32 | 36.06132 | -5.09478 | 12993 ft | 316 kts | 34° |
| 2026-05-06 10:32 | 36.07892 | -5.07819 | 13912 ft | 321 kts | 35° |
| 2026-05-06 10:32 | 36.09681 | -5.06115 | 14766 ft | 326 kts | 35° |
| 2026-05-06 10:32 | 36.11492 | -5.04385 | 15611 ft | 331 kts | 35° |
| 2026-05-06 10:33 | 36.13331 | -5.02629 | 16424 ft | 336 kts | 34° |
| 2026-05-06 10:33 | 36.15198 | -5.00844 | 17247 ft | 341 kts | 34° |
| 2026-05-06 10:33 | 36.17090 | -4.99037 | 18064 ft | 346 kts | 34° |
| 2026-05-06 10:33 | 36.19014 | -4.97199 | 18789 ft | 351 kts | 34° |
| 2026-05-06 10:34 | 36.20943 | -4.95354 | 19446 ft | 356 kts | 34° |
| 2026-05-06 10:34 | 36.22922 | -4.93461 | 20107 ft | 362 kts | 34° |
| 2026-05-06 10:34 | 36.24935 | -4.91535 | 20787 ft | 367 kts | 34° |
| 2026-05-06 10:34 | 36.26968 | -4.89587 | 21445 ft | 372 kts | 34° |
| 2026-05-06 10:35 | 36.29031 | -4.87611 | 22099 ft | 377 kts | 33° |
| 2026-05-06 10:35 | 36.31126 | -4.85603 | 22754 ft | 382 kts | 33° |
| 2026-05-06 10:35 | 36.33100 | -4.83709 | 23354 ft | 387 kts | 33° |
| 2026-05-06 10:35 | 36.35137 | -4.81753 | 23895 ft | 391 kts | 33° |
| 2026-05-06 10:36 | 36.37268 | -4.79705 | 24457 ft | 394 kts | 33° |
| 2026-05-06 10:36 | 36.39451 | -4.77607 | 24997 ft | 398 kts | 33° |
| 2026-05-06 10:36 | 36.41654 | -4.75489 | 25533 ft | 402 kts | 33° |
| 2026-05-06 10:36 | 36.43874 | -4.73351 | 26051 ft | 406 kts | 33° |
| 2026-05-06 10:37 | 36.46119 | -4.71185 | 26568 ft | 409 kts | 33° |
| 2026-05-06 10:37 | 36.48368 | -4.69018 | 27051 ft | 410 kts | 33° |
| 2026-05-06 10:37 | 36.50640 | -4.66828 | 27450 ft | 416 kts | 33° |
| 2026-05-06 10:37 | 36.52941 | -4.64608 | 27942 ft | 419 kts | 33° |
| 2026-05-06 10:38 | 36.55253 | -4.62376 | 28432 ft | 422 kts | 33° |
| 2026-05-06 10:38 | 36.57577 | -4.60129 | 28925 ft | 426 kts | 33° |
| 2026-05-06 10:38 | 36.59930 | -4.57852 | 29351 ft | 430 kts | 33° |
| 2026-05-06 10:38 | 36.62287 | -4.55572 | 29519 ft | 440 kts | 33° |
| 2026-05-06 10:39 | 36.64733 | -4.53205 | 29654 ft | 452 kts | 33° |
| 2026-05-06 10:39 | 36.67251 | -4.50764 | 29776 ft | 463 kts | 33° |
| 2026-05-06 10:39 | 36.69823 | -4.48269 | 29891 ft | 473 kts | 34° |
| 2026-05-06 10:39 | 36.72453 | -4.45713 | 30015 ft | 484 kts | 34° |
| 2026-05-06 10:40 | 36.75137 | -4.43101 | 30135 ft | 493 kts | 34° |
| 2026-05-06 10:40 | 36.77821 | -4.40487 | 30436 ft | 497 kts | 34° |
| 2026-05-06 10:40 | 36.80606 | -4.37918 | 30810 ft | 497 kts | 28° |
| 2026-05-06 10:40 | 36.83611 | -4.35792 | 31176 ft | 494 kts | 20° |
| 2026-05-06 10:41 | 36.86755 | -4.34066 | 31622 ft | 492 kts | 18° |
| 2026-05-06 10:41 | 36.89877 | -4.32367 | 31786 ft | 500 kts | 18° |
| 2026-05-06 10:41 | 36.93126 | -4.30587 | 31900 ft | 506 kts | 18° |
| 2026-05-06 10:41 | 36.96351 | -4.28816 | 31939 ft | 513 kts | 18° |
| 2026-05-06 10:42 | 37.02948 | -4.25190 | 31934 ft | 523 kts | 18° |
| 2026-05-06 10:42 | 37.09651 | -4.21502 | 31933 ft | 527 kts | 18° |
| 2026-05-06 10:43 | 37.12935 | -4.19684 | 31937 ft | 503 kts | 18° |
| 2026-05-06 10:43 | 37.16113 | -4.17925 | 31945 ft | 502 kts | 18° |
| 2026-05-06 10:44 | 37.25853 | -4.12559 | 31945 ft | 499 kts | 18° |
| 2026-05-06 10:44 | 37.28947 | -4.10838 | 31951 ft | 487 kts | 18° |
| 2026-05-06 10:44 | 37.32059 | -4.09116 | 31952 ft | 491 kts | 18° |
| 2026-05-06 10:45 | 37.38348 | -4.05639 | 31949 ft | 493 kts | 18° |
| 2026-05-06 10:45 | 37.44636 | -4.02147 | 31947 ft | 493 kts | 18° |
| 2026-05-06 10:46 | 37.50880 | -3.98673 | 31943 ft | 493 kts | 17° |
| 2026-05-06 10:46 | 37.57171 | -3.95167 | 31946 ft | 494 kts | 17° |
| 2026-05-06 10:47 | 37.63480 | -3.91642 | 31941 ft | 494 kts | 17° |
| 2026-05-06 10:47 | 37.69735 | -3.88142 | 31946 ft | 494 kts | 17° |
| 2026-05-06 10:48 | 37.76028 | -3.84614 | 31943 ft | 494 kts | 17° |
| 2026-05-06 10:48 | 37.82292 | -3.81095 | 31941 ft | 494 kts | 17° |
| 2026-05-06 10:49 | 37.88583 | -3.77556 | 31939 ft | 494 kts | 17° |
| 2026-05-06 10:49 | 37.94892 | -3.74000 | 31945 ft | 495 kts | 17° |
| 2026-05-06 10:50 | 38.01159 | -3.70461 | 31950 ft | 495 kts | 17° |
| 2026-05-06 10:50 | 38.07462 | -3.66894 | 31954 ft | 496 kts | 17° |
| 2026-05-06 10:51 | 38.13813 | -3.63556 | 31948 ft | 489 kts | 9° |
| 2026-05-06 10:51 | 38.20386 | -3.61982 | 31950 ft | 473 kts | 355° |
| 2026-05-06 10:52 | 38.26929 | -3.61361 | 31952 ft | 474 kts | 355° |
| 2026-05-06 10:52 | 38.33516 | -3.60711 | 31956 ft | 475 kts | 355° |
| 2026-05-06 10:53 | 38.40124 | -3.60066 | 31957 ft | 475 kts | 355° |
| 2026-05-06 10:53 | 38.46723 | -3.59426 | 31961 ft | 475 kts | 355° |
| 2026-05-06 10:54 | 38.53323 | -3.58785 | 31952 ft | 475 kts | 355° |
| 2026-05-06 10:54 | 38.59918 | -3.58143 | 31957 ft | 475 kts | 355° |
| 2026-05-06 10:55 | 38.66483 | -3.57504 | 31948 ft | 475 kts | 355° |
| 2026-05-06 10:55 | 38.73080 | -3.56858 | 31953 ft | 475 kts | 355° |
| 2026-05-06 10:56 | 38.79683 | -3.56210 | 31963 ft | 475 kts | 355° |
| 2026-05-06 10:56 | 38.86258 | -3.55565 | 31961 ft | 475 kts | 355° |
| 2026-05-06 10:57 | 38.92860 | -3.54917 | 31960 ft | 475 kts | 355° |
| 2026-05-06 10:57 | 38.99455 | -3.54268 | 31963 ft | 475 kts | 355° |
| 2026-05-06 10:58 | 39.06051 | -3.53614 | 31962 ft | 475 kts | 355° |
| 2026-05-06 10:58 | 39.12603 | -3.52962 | 31964 ft | 475 kts | 355° |
| 2026-05-06 10:59 | 39.19198 | -3.52305 | 31958 ft | 475 kts | 355° |
| 2026-05-06 10:59 | 39.25793 | -3.51647 | 31968 ft | 475 kts | 355° |
| 2026-05-06 11:00 | 39.32392 | -3.50987 | 31971 ft | 475 kts | 355° |
| 2026-05-06 11:00 | 39.37871 | -3.50439 | 31970 ft | 475 kts | 355° |
| 2026-05-06 11:01 | 39.44484 | -3.49776 | 31969 ft | 475 kts | 355° |
| 2026-05-06 11:01 | 39.51087 | -3.49112 | 31971 ft | 475 kts | 355° |
| 2026-05-06 11:02 | 39.57644 | -3.48451 | 31969 ft | 476 kts | 355° |
| 2026-05-06 11:02 | 39.64260 | -3.47787 | 31973 ft | 476 kts | 355° |
| 2026-05-06 11:03 | 39.70883 | -3.47125 | 31973 ft | 476 kts | 355° |
| 2026-05-06 11:03 | 39.77500 | -3.46517 | 31980 ft | 473 kts | 351° |
| 2026-05-06 11:04 | 39.83983 | -3.47009 | 31975 ft | 466 kts | 346° |
| 2026-05-06 11:04 | 39.90425 | -3.47659 | 31993 ft | 468 kts | 346° |
| 2026-05-06 11:05 | 39.96932 | -3.48311 | 32002 ft | 468 kts | 346° |
| 2026-05-06 11:05 | 40.03439 | -3.48967 | 32001 ft | 469 kts | 346° |
| 2026-05-06 11:06 | 40.09913 | -3.49624 | 31993 ft | 469 kts | 346° |
| 2026-05-06 11:06 | 40.16420 | -3.50285 | 31995 ft | 468 kts | 346° |
| 2026-05-06 11:07 | 40.22920 | -3.50946 | 31991 ft | 468 kts | 346° |
| 2026-05-06 11:07 | 40.29418 | -3.51610 | 31991 ft | 468 kts | 347° |
| 2026-05-06 11:08 | 40.35863 | -3.52267 | 31988 ft | 468 kts | 347° |
| 2026-05-06 11:08 | 40.42350 | -3.52931 | 31988 ft | 468 kts | 347° |
| 2026-05-06 11:09 | 40.48851 | -3.53599 | 31992 ft | 468 kts | 347° |
| 2026-05-06 11:09 | 40.55347 | -3.54266 | 32000 ft | 468 kts | 347° |
| 2026-05-06 11:10 | 40.61853 | -3.54935 | 32005 ft | 468 kts | 348° |
| 2026-05-06 11:10 | 40.68349 | -3.55605 | 32022 ft | 468 kts | 348° |
| 2026-05-06 11:11 | 40.74832 | -3.56275 | 32021 ft | 467 kts | 348° |
| 2026-05-06 11:11 | 40.81279 | -3.56941 | 32018 ft | 466 kts | 348° |
| 2026-05-06 11:12 | 40.87749 | -3.57614 | 32004 ft | 466 kts | 348° |
| 2026-05-06 11:12 | 40.94228 | -3.58287 | 32003 ft | 465 kts | 348° |
| 2026-05-06 11:13 | 41.00645 | -3.58956 | 31995 ft | 465 kts | 349° |
| 2026-05-06 11:13 | 41.07103 | -3.59630 | 32002 ft | 464 kts | 349° |
| 2026-05-06 11:14 | 41.13560 | -3.60306 | 31998 ft | 464 kts | 349° |
| 2026-05-06 11:14 | 41.20047 | -3.60598 | 32001 ft | 467 kts | 353° |
| 2026-05-06 11:15 | 41.26497 | -3.60759 | 32001 ft | 466 kts | 353° |
| 2026-05-06 11:15 | 41.32983 | -3.60925 | 32005 ft | 466 kts | 353° |
| 2026-05-06 11:16 | 41.39467 | -3.61091 | 32001 ft | 465 kts | 353° |
| 2026-05-06 11:16 | 41.45944 | -3.61256 | 32003 ft | 465 kts | 353° |
| 2026-05-06 11:17 | 41.52424 | -3.61410 | 32006 ft | 465 kts | 354° |
| 2026-05-06 11:17 | 41.58856 | -3.61401 | 32012 ft | 465 kts | 355° |
| 2026-05-06 11:18 | 41.65328 | -3.61374 | 32003 ft | 464 kts | 355° |
| 2026-05-06 11:18 | 41.71790 | -3.61368 | 32006 ft | 463 kts | 355° |
| 2026-05-06 11:19 | 41.78242 | -3.61368 | 32001 ft | 463 kts | 355° |
| 2026-05-06 11:19 | 41.84686 | -3.61368 | 32004 ft | 462 kts | 355° |
| 2026-05-06 11:20 | 41.91121 | -3.61368 | 31997 ft | 462 kts | 355° |
| 2026-05-06 11:20 | 41.97507 | -3.61368 | 32005 ft | 461 kts | 355° |
| 2026-05-06 11:21 | 42.03932 | -3.61387 | 32000 ft | 460 kts | 354° |
| 2026-05-06 11:21 | 42.10317 | -3.61807 | 31999 ft | 458 kts | 352° |
| 2026-05-06 11:22 | 42.16691 | -3.62284 | 32011 ft | 458 kts | 353° |
| 2026-05-06 11:22 | 42.23028 | -3.62710 | 32017 ft | 458 kts | 353° |
| 2026-05-06 11:23 | 42.29397 | -3.63122 | 32020 ft | 458 kts | 353° |
| 2026-05-06 11:23 | 42.35764 | -3.63571 | 32022 ft | 456 kts | 350° |
| 2026-05-06 11:24 | 42.42029 | -3.64783 | 32017 ft | 454 kts | 347° |
| 2026-05-06 11:24 | 42.48292 | -3.66019 | 32019 ft | 454 kts | 348° |
| 2026-05-06 11:25 | 42.54549 | -3.67259 | 32013 ft | 454 kts | 348° |
| 2026-05-06 11:25 | 42.60763 | -3.68498 | 32013 ft | 454 kts | 348° |
| 2026-05-06 11:26 | 42.67019 | -3.69749 | 32007 ft | 453 kts | 348° |
| 2026-05-06 11:26 | 42.73252 | -3.70899 | 32010 ft | 454 kts | 349° |
| 2026-05-06 11:27 | 42.79525 | -3.71933 | 32012 ft | 454 kts | 350° |
| 2026-05-06 11:27 | 42.85801 | -3.72988 | 32019 ft | 453 kts | 350° |
| 2026-05-06 11:28 | 42.92061 | -3.74057 | 32023 ft | 452 kts | 350° |
| 2026-05-06 11:28 | 42.98257 | -3.75124 | 32001 ft | 445 kts | 351° |
| 2026-05-06 11:28 | 43.01285 | -3.75645 | 32026 ft | 433 kts | 351° |
| 2026-05-06 11:29 | 43.04277 | -3.76158 | 32029 ft | 434 kts | 351° |
| 2026-05-06 11:29 | 43.10310 | -3.77196 | 32036 ft | 436 kts | 351° |
| 2026-05-06 11:30 | 43.16242 | -3.78219 | 32042 ft | 435 kts | 352° |
| 2026-05-06 11:30 | 43.22263 | -3.79260 | 32044 ft | 435 kts | 352° |
| 2026-05-06 11:31 | 43.28264 | -3.80299 | 32049 ft | 435 kts | 352° |
| 2026-05-06 11:31 | 43.34281 | -3.81343 | 32044 ft | 434 kts | 352° |
| 2026-05-06 11:32 | 43.40231 | -3.82378 | 32039 ft | 433 kts | 352° |
| 2026-05-06 11:32 | 43.46216 | -3.83420 | 32033 ft | 433 kts | 352° |
| 2026-05-06 11:33 | 43.52201 | -3.84464 | 32035 ft | 433 kts | 352° |
| 2026-05-06 11:33 | 43.58181 | -3.85509 | 32038 ft | 433 kts | 352° |
| 2026-05-06 11:34 | 43.64164 | -3.86556 | 32041 ft | 432 kts | 352° |
| 2026-05-06 11:34 | 43.70097 | -3.87597 | 32027 ft | 432 kts | 352° |
| 2026-05-06 11:35 | 43.76075 | -3.88649 | 32019 ft | 432 kts | 352° |
| 2026-05-06 11:35 | 43.82055 | -3.89703 | 32017 ft | 433 kts | 352° |
| 2026-05-06 11:36 | 43.88041 | -3.90760 | 32015 ft | 434 kts | 352° |
| 2026-05-06 11:36 | 43.93995 | -3.91814 | 32016 ft | 435 kts | 352° |
| 2026-05-06 11:37 | 44.00005 | -3.92880 | 32022 ft | 435 kts | 352° |
| 2026-05-06 11:37 | 44.06024 | -3.93949 | 32025 ft | 436 kts | 352° |
| 2026-05-06 11:38 | 44.12050 | -3.95023 | 32024 ft | 437 kts | 352° |
| 2026-05-06 11:38 | 44.18062 | -3.96095 | 32033 ft | 437 kts | 352° |
| 2026-05-06 11:39 | 44.24112 | -3.97177 | 32036 ft | 438 kts | 352° |
| 2026-05-06 11:39 | 44.30158 | -3.98257 | 32037 ft | 438 kts | 353° |
| 2026-05-06 11:40 | 44.36254 | -3.98277 | 32031 ft | 439 kts | 5° |
| 2026-05-06 11:40 | 44.42288 | -3.97415 | 32031 ft | 438 kts | 5° |
| 2026-05-06 11:41 | 44.48358 | -3.96581 | 32027 ft | 438 kts | 5° |
| 2026-05-06 11:41 | 44.54430 | -3.95733 | 32025 ft | 438 kts | 5° |
| 2026-05-06 11:42 | 44.60502 | -3.94878 | 32024 ft | 438 kts | 5° |
| 2026-05-06 11:42 | 44.66576 | -3.94021 | 32021 ft | 438 kts | 5° |
| 2026-05-06 11:43 | 44.72647 | -3.93162 | 32021 ft | 438 kts | 5° |
| 2026-05-06 11:43 | 44.78711 | -3.92302 | 32020 ft | 437 kts | 5° |
| 2026-05-06 11:44 | 44.87763 | -3.91016 | 32011 ft | 437 kts | 5° |
| 2026-05-06 11:44 | 44.93822 | -3.90153 | 32014 ft | 437 kts | 5° |
| 2026-05-06 11:45 | 44.99884 | -3.89287 | 32011 ft | 437 kts | 5° |
| 2026-05-06 11:45 | 45.05948 | -3.88420 | 32009 ft | 437 kts | 5° |
| 2026-05-06 11:46 | 45.10979 | -3.87698 | 32008 ft | 437 kts | 5° |
| 2026-05-06 11:46 | 45.18027 | -3.86685 | 32008 ft | 437 kts | 5° |
| 2026-05-06 11:47 | 45.23062 | -3.85960 | 32007 ft | 437 kts | 5° |
| 2026-05-06 11:47 | 45.29118 | -3.85086 | 32003 ft | 437 kts | 5° |
| 2026-05-06 11:48 | 45.35177 | -3.84210 | 32002 ft | 437 kts | 5° |
| 2026-05-06 11:48 | 45.41228 | -3.83334 | 32004 ft | 437 kts | 5° |
| 2026-05-06 11:49 | 45.47282 | -3.82455 | 32006 ft | 437 kts | 5° |
| 2026-05-06 11:49 | 45.53312 | -3.81577 | 32004 ft | 437 kts | 5° |
| 2026-05-06 11:50 | 45.59372 | -3.80694 | 32000 ft | 436 kts | 5° |
| 2026-05-06 11:50 | 45.65415 | -3.79810 | 32004 ft | 436 kts | 5° |
| 2026-05-06 11:51 | 45.71477 | -3.78922 | 32004 ft | 437 kts | 5° |
| 2026-05-06 11:51 | 45.77489 | -3.78040 | 32004 ft | 437 kts | 5° |
| 2026-05-06 11:52 | 45.83540 | -3.77150 | 31999 ft | 437 kts | 5° |
| 2026-05-06 11:52 | 45.89592 | -3.76257 | 32000 ft | 436 kts | 5° |
| 2026-05-06 11:53 | 45.95655 | -3.75362 | 32001 ft | 437 kts | 5° |
| 2026-05-06 11:53 | 46.01714 | -3.74465 | 32004 ft | 437 kts | 5° |
| 2026-05-06 11:54 | 46.07736 | -3.73571 | 32005 ft | 438 kts | 5° |
| 2026-05-06 11:54 | 46.13804 | -3.72668 | 31999 ft | 437 kts | 5° |
| 2026-05-06 11:55 | 46.19834 | -3.71770 | 31996 ft | 437 kts | 5° |
| 2026-05-06 11:55 | 46.25895 | -3.70864 | 32001 ft | 438 kts | 5° |
| 2026-05-06 11:56 | 46.31969 | -3.70009 | 31998 ft | 437 kts | 1° |
| 2026-05-06 11:56 | 46.38053 | -3.70161 | 31999 ft | 437 kts | 358° |
| 2026-05-06 11:57 | 46.44104 | -3.70390 | 31996 ft | 437 kts | 358° |
| 2026-05-06 11:57 | 46.50196 | -3.70622 | 31997 ft | 438 kts | 358° |
| 2026-05-06 11:58 | 46.56294 | -3.70862 | 31995 ft | 437 kts | 358° |
| 2026-05-06 11:58 | 46.62342 | -3.71101 | 31994 ft | 437 kts | 358° |
| 2026-05-06 11:59 | 46.68432 | -3.71343 | 31989 ft | 437 kts | 358° |
| 2026-05-06 11:59 | 46.74517 | -3.71585 | 31988 ft | 437 kts | 358° |
| 2026-05-06 12:00 | 46.80614 | -3.71829 | 31987 ft | 437 kts | 358° |
| 2026-05-06 12:00 | 46.86657 | -3.72070 | 31986 ft | 437 kts | 358° |
| 2026-05-06 12:01 | 46.92736 | -3.72313 | 31990 ft | 437 kts | 358° |
| 2026-05-06 12:01 | 46.98835 | -3.72558 | 31989 ft | 437 kts | 358° |
| 2026-05-06 12:02 | 47.04924 | -3.72803 | 31989 ft | 438 kts | 358° |
| 2026-05-06 12:02 | 47.10975 | -3.73047 | 31990 ft | 438 kts | 358° |
| 2026-05-06 12:03 | 47.17075 | -3.73293 | 31987 ft | 438 kts | 358° |
| 2026-05-06 12:03 | 47.23179 | -3.73541 | 31988 ft | 438 kts | 358° |
| 2026-05-06 12:04 | 47.29281 | -3.73788 | 31867 ft | 439 kts | 358° |
| 2026-05-06 12:04 | 47.32341 | -3.73912 | 31510 ft | 439 kts | 358° |
| 2026-05-06 12:04 | 47.35402 | -3.74036 | 31125 ft | 440 kts | 358° |
| 2026-05-06 12:05 | 47.38468 | -3.74161 | 30754 ft | 441 kts | 358° |
| 2026-05-06 12:05 | 47.41537 | -3.74286 | 30379 ft | 441 kts | 357° |
| 2026-05-06 12:05 | 47.44596 | -3.74411 | 30002 ft | 439 kts | 357° |
| 2026-05-06 12:05 | 47.47641 | -3.74536 | 29557 ft | 436 kts | 357° |
| 2026-05-06 12:06 | 47.50661 | -3.74659 | 29131 ft | 433 kts | 357° |
| 2026-05-06 12:06 | 47.53633 | -3.74781 | 28718 ft | 431 kts | 357° |
| 2026-05-06 12:06 | 47.56630 | -3.74904 | 28302 ft | 429 kts | 357° |
| 2026-05-06 12:06 | 47.59600 | -3.75026 | 28085 ft | 425 kts | 357° |
| 2026-05-06 12:07 | 47.62570 | -3.75149 | 27980 ft | 427 kts | 357° |
| 2026-05-06 12:07 | 47.65546 | -3.75272 | 27968 ft | 427 kts | 357° |
| 2026-05-06 12:07 | 47.68518 | -3.75394 | 27971 ft | 427 kts | 357° |
| 2026-05-06 12:07 | 47.71489 | -3.75517 | 27965 ft | 427 kts | 357° |
| 2026-05-06 12:08 | 47.74465 | -3.75640 | 27971 ft | 427 kts | 357° |
| 2026-05-06 12:08 | 47.77436 | -3.75763 | 27971 ft | 427 kts | 357° |
| 2026-05-06 12:08 | 47.80370 | -3.75884 | 27971 ft | 427 kts | 357° |
| 2026-05-06 12:08 | 47.83339 | -3.76007 | 27968 ft | 427 kts | 357° |
| 2026-05-06 12:09 | 47.86305 | -3.76130 | 27968 ft | 427 kts | 357° |
| 2026-05-06 12:09 | 47.89279 | -3.76254 | 27971 ft | 427 kts | 357° |
| 2026-05-06 12:09 | 47.92249 | -3.76378 | 27964 ft | 427 kts | 357° |
| 2026-05-06 12:09 | 47.95217 | -3.76501 | 27975 ft | 427 kts | 357° |
| 2026-05-06 12:10 | 47.98191 | -3.76625 | 27972 ft | 427 kts | 357° |
| 2026-05-06 12:10 | 48.01156 | -3.76749 | 27971 ft | 427 kts | 357° |
| 2026-05-06 12:10 | 48.04126 | -3.76873 | 27974 ft | 427 kts | 357° |
| 2026-05-06 12:10 | 48.07105 | -3.76997 | 27973 ft | 427 kts | 357° |
| 2026-05-06 12:11 | 48.10037 | -3.77120 | 27971 ft | 427 kts | 357° |
| 2026-05-06 12:11 | 48.13007 | -3.77245 | 27975 ft | 427 kts | 357° |
| 2026-05-06 12:11 | 48.15983 | -3.77370 | 27976 ft | 427 kts | 357° |
| 2026-05-06 12:11 | 48.18956 | -3.77495 | 27974 ft | 427 kts | 357° |
| 2026-05-06 12:12 | 48.21929 | -3.77620 | 27982 ft | 427 kts | 357° |
| 2026-05-06 12:12 | 48.24904 | -3.77745 | 27980 ft | 428 kts | 357° |
| 2026-05-06 12:12 | 48.27892 | -3.77871 | 27983 ft | 427 kts | 357° |
| 2026-05-06 12:12 | 48.30865 | -3.77997 | 27985 ft | 428 kts | 357° |
| 2026-05-06 12:13 | 48.33842 | -3.78123 | 27989 ft | 428 kts | 357° |
| 2026-05-06 12:13 | 48.36823 | -3.78250 | 27989 ft | 428 kts | 357° |
| 2026-05-06 12:13 | 48.39766 | -3.78374 | 27990 ft | 428 kts | 357° |
| 2026-05-06 12:13 | 48.42748 | -3.78501 | 27995 ft | 428 kts | 357° |
| 2026-05-06 12:14 | 48.45742 | -3.78628 | 27994 ft | 429 kts | 357° |
| 2026-05-06 12:14 | 48.48731 | -3.78755 | 27990 ft | 429 kts | 357° |
| 2026-05-06 12:14 | 48.51678 | -3.78881 | 27994 ft | 429 kts | 357° |
| 2026-05-06 12:14 | 48.54658 | -3.79007 | 27992 ft | 429 kts | 357° |
| 2026-05-06 12:15 | 48.57650 | -3.79135 | 27991 ft | 429 kts | 357° |
| 2026-05-06 12:15 | 48.60635 | -3.79263 | 27995 ft | 429 kts | 357° |
| 2026-05-06 12:15 | 48.63622 | -3.79391 | 27989 ft | 429 kts | 357° |
| 2026-05-06 12:15 | 48.66610 | -3.79520 | 27992 ft | 429 kts | 357° |
| 2026-05-06 12:16 | 48.69602 | -3.79648 | 27994 ft | 429 kts | 357° |
| 2026-05-06 12:16 | 48.72584 | -3.79776 | 27994 ft | 429 kts | 357° |
| 2026-05-06 12:16 | 48.75571 | -3.79905 | 27992 ft | 429 kts | 357° |
| 2026-05-06 12:16 | 48.78565 | -3.80033 | 27992 ft | 429 kts | 357° |
| 2026-05-06 12:17 | 48.81550 | -3.80162 | 27992 ft | 429 kts | 357° |
| 2026-05-06 12:17 | 48.84498 | -3.80289 | 27991 ft | 429 kts | 357° |
| 2026-05-06 12:17 | 48.87482 | -3.80418 | 27993 ft | 429 kts | 357° |
| 2026-05-06 12:17 | 48.90476 | -3.80548 | 27992 ft | 429 kts | 357° |
| 2026-05-06 12:18 | 48.93460 | -3.80677 | 27992 ft | 429 kts | 357° |
| 2026-05-06 12:18 | 48.96449 | -3.80806 | 27993 ft | 429 kts | 357° |
| 2026-05-06 12:18 | 48.99432 | -3.80762 | 27994 ft | 430 kts | 1° |
| 2026-05-06 12:18 | 49.02422 | -3.80568 | 27993 ft | 429 kts | 1° |
| 2026-05-06 12:19 | 49.05407 | -3.80386 | 27992 ft | 429 kts | 1° |
| 2026-05-06 12:19 | 49.08396 | -3.80208 | 27996 ft | 429 kts | 1° |
| 2026-05-06 12:19 | 49.11382 | -3.80030 | 27990 ft | 429 kts | 1° |
| 2026-05-06 12:19 | 49.14333 | -3.79852 | 27992 ft | 429 kts | 1° |
| 2026-05-06 12:20 | 49.17316 | -3.79671 | 27992 ft | 429 kts | 1° |
| 2026-05-06 12:20 | 49.20299 | -3.79489 | 27994 ft | 429 kts | 1° |
| 2026-05-06 12:20 | 49.23281 | -3.79308 | 27992 ft | 429 kts | 1° |
| 2026-05-06 12:20 | 49.26265 | -3.79125 | 27996 ft | 429 kts | 1° |
| 2026-05-06 12:21 | 49.29252 | -3.78942 | 27992 ft | 428 kts | 1° |
| 2026-05-06 12:21 | 49.32236 | -3.78758 | 27992 ft | 428 kts | 1° |
| 2026-05-06 12:21 | 49.35218 | -3.78575 | 27988 ft | 429 kts | 1° |
| 2026-05-06 12:21 | 49.38164 | -3.78394 | 27990 ft | 428 kts | 1° |
| 2026-05-06 12:22 | 49.41146 | -3.78211 | 27991 ft | 429 kts | 1° |
| 2026-05-06 12:22 | 49.44134 | -3.78027 | 27991 ft | 429 kts | 1° |
| 2026-05-06 12:22 | 49.47111 | -3.77844 | 27991 ft | 428 kts | 1° |
| 2026-05-06 12:22 | 49.50089 | -3.77660 | 27993 ft | 429 kts | 1° |
| 2026-05-06 12:23 | 49.53075 | -3.77475 | 27993 ft | 428 kts | 1° |
| 2026-05-06 12:23 | 49.56067 | -3.77290 | 27991 ft | 428 kts | 1° |
| 2026-05-06 12:23 | 49.59044 | -3.77105 | 27994 ft | 428 kts | 1° |
| 2026-05-06 12:23 | 49.62024 | -3.76919 | 27992 ft | 428 kts | 1° |
| 2026-05-06 12:24 | 49.65004 | -3.76734 | 27997 ft | 428 kts | 1° |
| 2026-05-06 12:24 | 49.67946 | -3.76551 | 27997 ft | 428 kts | 1° |
| 2026-05-06 12:24 | 49.70926 | -3.76354 | 28000 ft | 428 kts | 2° |
| 2026-05-06 12:24 | 49.73906 | -3.76033 | 27997 ft | 428 kts | 3° |
| 2026-05-06 12:25 | 49.76881 | -3.75654 | 27998 ft | 428 kts | 3° |
| 2026-05-06 12:25 | 49.79852 | -3.75272 | 28001 ft | 428 kts | 3° |
| 2026-05-06 12:25 | 49.82828 | -3.74900 | 27996 ft | 429 kts | 3° |
| 2026-05-06 12:25 | 49.85797 | -3.74540 | 28005 ft | 429 kts | 3° |
| 2026-05-06 12:26 | 49.91717 | -3.73833 | 28003 ft | 429 kts | 3° |
| 2026-05-06 12:26 | 49.94693 | -3.73480 | 27997 ft | 429 kts | 3° |
| 2026-05-06 12:26 | 49.97672 | -3.73127 | 27814 ft | 429 kts | 2° |
| 2026-05-06 12:27 | 50.00646 | -3.72774 | 27552 ft | 427 kts | 2° |
| 2026-05-06 12:27 | 50.03599 | -3.72422 | 27285 ft | 424 kts | 2° |
| 2026-05-06 12:27 | 50.06541 | -3.72071 | 27023 ft | 424 kts | 2° |
| 2026-05-06 12:27 | 50.09484 | -3.71720 | 26760 ft | 423 kts | 2° |
| 2026-05-06 12:28 | 50.12420 | -3.71370 | 26499 ft | 422 kts | 2° |
| 2026-05-06 12:28 | 50.15347 | -3.71020 | 26252 ft | 421 kts | 2° |
| 2026-05-06 12:28 | 50.18267 | -3.70670 | 25998 ft | 420 kts | 2° |
| 2026-05-06 12:28 | 50.21141 | -3.70325 | 25750 ft | 418 kts | 2° |
| 2026-05-06 12:29 | 50.24038 | -3.69977 | 25499 ft | 417 kts | 2° |
| 2026-05-06 12:29 | 50.26938 | -3.69628 | 25256 ft | 416 kts | 2° |
| 2026-05-06 12:29 | 50.29828 | -3.69280 | 24846 ft | 416 kts | 2° |
| 2026-05-06 12:29 | 50.32706 | -3.68933 | 24293 ft | 415 kts | 2° |
| 2026-05-06 12:30 | 50.35591 | -3.68585 | 23686 ft | 413 kts | 2° |
| 2026-05-06 12:30 | 50.38356 | -3.68250 | 23143 ft | 408 kts | 2° |
| 2026-05-06 12:30 | 50.41172 | -3.67909 | 22585 ft | 402 kts | 2° |
| 2026-05-06 12:30 | 50.43912 | -3.67509 | 22042 ft | 397 kts | 5° |
| 2026-05-06 12:31 | 50.46640 | -3.66983 | 21499 ft | 392 kts | 6° |
| 2026-05-06 12:31 | 50.49324 | -3.66434 | 20966 ft | 387 kts | 6° |
| 2026-05-06 12:31 | 50.51990 | -3.65896 | 20430 ft | 382 kts | 5° |
| 2026-05-06 12:31 | 50.54620 | -3.65377 | 19901 ft | 378 kts | 5° |
| 2026-05-06 12:32 | 50.57192 | -3.64880 | 19386 ft | 375 kts | 5° |
| 2026-05-06 12:32 | 50.59775 | -3.64385 | 18860 ft | 372 kts | 5° |
| 2026-05-06 12:32 | 50.62333 | -3.63897 | 18335 ft | 369 kts | 5° |
| 2026-05-06 12:32 | 50.64887 | -3.63411 | 17779 ft | 366 kts | 5° |
| 2026-05-06 12:33 | 50.67399 | -3.62931 | 17263 ft | 361 kts | 5° |
| 2026-05-06 12:33 | 50.69849 | -3.62463 | 16762 ft | 357 kts | 5° |
| 2026-05-06 12:33 | 50.72309 | -3.61993 | 16256 ft | 354 kts | 6° |
| 2026-05-06 12:33 | 50.74740 | -3.61527 | 15753 ft | 350 kts | 6° |
| 2026-05-06 12:34 | 50.77151 | -3.61065 | 15251 ft | 347 kts | 6° |
| 2026-05-06 12:34 | 50.78733 | -3.60762 | 14928 ft | 345 kts | 6° |
| 2026-05-06 12:34 | 50.81116 | -3.60304 | 14437 ft | 342 kts | 6° |
| 2026-05-06 12:34 | 50.84249 | -3.59701 | 13784 ft | 339 kts | 6° |
| 2026-05-06 12:35 | 50.85802 | -3.59402 | 13454 ft | 337 kts | 6° |
| 2026-05-06 12:35 | 50.88088 | -3.58960 | 13294 ft | 323 kts | 6° |
| 2026-05-06 12:35 | 50.90273 | -3.58536 | 13158 ft | 310 kts | 6° |
| 2026-05-06 12:35 | 50.92372 | -3.58056 | 12910 ft | 302 kts | 13° |
| 2026-05-06 12:36 | 50.94270 | -3.56741 | 12635 ft | 295 kts | 33° |
| 2026-05-06 12:36 | 50.95785 | -3.54583 | 12374 ft | 295 kts | 45° |
| 2026-05-06 12:36 | 50.97210 | -3.52204 | 12120 ft | 297 kts | 45° |
| 2026-05-06 12:36 | 50.98635 | -3.49838 | 11771 ft | 296 kts | 45° |
| 2026-05-06 12:37 | 51.00055 | -3.47482 | 11401 ft | 294 kts | 45° |
| 2026-05-06 12:37 | 51.01448 | -3.45171 | 11031 ft | 291 kts | 45° |
| 2026-05-06 12:37 | 51.02842 | -3.42857 | 10663 ft | 288 kts | 45° |
| 2026-05-06 12:37 | 51.04224 | -3.40560 | 10300 ft | 286 kts | 45° |
| 2026-05-06 12:38 | 51.05756 | -3.38633 | 10005 ft | 278 kts | 26° |
| 2026-05-06 12:38 | 51.07573 | -3.37749 | 9710 ft | 270 kts | 5° |
| 2026-05-06 12:38 | 51.09411 | -3.37453 | 9474 ft | 262 kts | 5° |
| 2026-05-06 12:38 | 51.11195 | -3.37148 | 9298 ft | 253 kts | 5° |
| 2026-05-06 12:39 | 51.12912 | -3.36846 | 9107 ft | 245 kts | 5° |
| 2026-05-06 12:39 | 51.14601 | -3.36549 | 8783 ft | 244 kts | 5° |
| 2026-05-06 12:39 | 51.16281 | -3.36246 | 8443 ft | 243 kts | 8° |
| 2026-05-06 12:39 | 51.17839 | -3.35242 | 8060 ft | 245 kts | 37° |
| 2026-05-06 12:40 | 51.18920 | -3.33157 | 7708 ft | 247 kts | 58° |
| 2026-05-06 12:40 | 51.19763 | -3.30817 | 7370 ft | 246 kts | 59° |
| 2026-05-06 12:40 | 51.20615 | -3.28445 | 7060 ft | 245 kts | 59° |
| 2026-05-06 12:40 | 51.21465 | -3.26093 | 6747 ft | 244 kts | 59° |
| 2026-05-06 12:41 | 51.22317 | -3.23743 | 6437 ft | 244 kts | 59° |
| 2026-05-06 12:41 | 51.23164 | -3.21414 | 6141 ft | 242 kts | 59° |
| 2026-05-06 12:41 | 51.24007 | -3.19096 | 5853 ft | 239 kts | 58° |
| 2026-05-06 12:41 | 51.24834 | -3.16819 | 5584 ft | 236 kts | 58° |
| 2026-05-06 12:42 | 51.25654 | -3.14560 | 5322 ft | 233 kts | 58° |
| 2026-05-06 12:42 | 51.26462 | -3.12329 | 5051 ft | 231 kts | 58° |
| 2026-05-06 12:42 | 51.27261 | -3.10123 | 4783 ft | 228 kts | 58° |
| 2026-05-06 12:42 | 51.28044 | -3.07967 | 4505 ft | 226 kts | 58° |
| 2026-05-06 12:43 | 51.28832 | -3.05802 | 4238 ft | 224 kts | 56° |
| 2026-05-06 12:43 | 51.29898 | -3.04077 | 4056 ft | 215 kts | 31° |
| 2026-05-06 12:43 | 51.31300 | -3.03220 | 3760 ft | 219 kts | 16° |
| 2026-05-06 12:43 | 51.32790 | -3.02554 | 3496 ft | 224 kts | 17° |
| 2026-05-06 12:44 | 51.34284 | -3.01876 | 3259 ft | 222 kts | 17° |
| 2026-05-06 12:44 | 51.35747 | -3.01141 | 2983 ft | 219 kts | 27° |
| 2026-05-06 12:44 | 51.36863 | -2.99560 | 2703 ft | 215 kts | 59° |
| 2026-05-06 12:44 | 51.37272 | -2.97304 | 2548 ft | 213 kts | 85° |
| 2026-05-06 12:45 | 51.37364 | -2.94941 | 2505 ft | 217 kts | 85° |
| 2026-05-06 12:45 | 51.37458 | -2.92593 | 2495 ft | 196 kts | 85° |
| 2026-05-06 12:45 | 51.37604 | -2.88848 | 2496 ft | 146 kts | 85° |
| 2026-05-06 12:46 | 51.37671 | -2.87191 | 2424 ft | 157 kts | 84° |
| 2026-05-06 12:46 | 51.37739 | -2.85408 | 2206 ft | 159 kts | 84° |
| 2026-05-06 12:46 | 51.37804 | -2.83677 | 1967 ft | 149 kts | 84° |
| 2026-05-06 12:46 | 51.37864 | -2.82100 | 1790 ft | 138 kts | 83° |
| 2026-05-06 12:47 | 51.37926 | -2.80618 | 1592 ft | 126 kts | 83° |
| 2026-05-06 12:47 | 51.37979 | -2.79288 | 1426 ft | 122 kts | 83° |
| 2026-05-06 12:47 | 51.38033 | -2.77865 | 1236 ft | 127 kts | 83° |
| 2026-05-06 12:47 | 51.38090 | -2.76478 | 1069 ft | 127 kts | 83° |
| 2026-05-06 12:48 | 51.38154 | -2.74996 | 960 ft | 149 kts | 81° |
| 2026-05-06 12:48 | 51.38223 | -2.73290 | 650 ft | 147 kts | 85° |
| 2026-05-06 12:48 | 51.38273 | -2.71900 | 634 ft | 97 kts | 87° |
| 2026-05-06 12:48 | 51.38299 | -2.71137 | 614 ft | 40 kts | 88° |
| 2026-05-06 12:49 | 51.38310 | -2.70830 | 617 ft | 18 kts | 86° |
| 2026-05-06 12:49 | 51.38380 | -2.70736 | 624 ft | 0 kts | 24° |
| 2026-05-06 12:49 | 51.38383 | -2.70734 | 616 ft | 2 kts | 23° |
| 2026-05-06 12:49 | 51.38415 | -2.70716 | 613 ft | 8 kts | 18° |
| 2026-05-06 12:50 | 51.38467 | -2.70751 | 625 ft | 11 kts | 290° |
| 2026-05-06 12:50 | 51.38467 | -2.70869 | 613 ft | 13 kts | 268° |
| 2026-05-06 12:50 | 51.38462 | -2.71052 | 615 ft | 19 kts | 264° |
| 2026-05-06 12:50 | 51.38451 | -2.71289 | 622 ft | 19 kts | 268° |
| 2026-05-06 12:51 | 51.38444 | -2.71465 | 619 ft | 18 kts | 266° |
| 2026-05-06 12:51 | 51.38462 | -2.71521 | 620 ft | 5 kts | 356° |
| 2026-05-06 12:51 | 51.38511 | -2.71524 | 615 ft | 10 kts | 356° |
| 2026-05-06 12:51 | 51.38546 | -2.71528 | 612 ft | 2 kts | 355° |
| 2026-05-06 12:52 | 51.38552 | -2.71529 | 612 ft | 0 kts | 355° |